createdAt,value
2017-10-28T00:01:36.526Z,7.25
2017-10-28T00:04:04.011Z,7.23
2017-10-28T00:06:31.465Z,7.27
2017-10-28T00:08:58.965Z,7.24
2017-10-28T00:11:26.498Z,6.99
2017-10-28T00:13:53.996Z,6.97
2017-10-28T00:16:21.461Z,7.05
2017-10-28T00:18:48.977Z,6.91
2017-10-28T00:21:16.433Z,6.98
2017-10-28T00:23:43.917Z,7.00
2017-10-28T00:26:11.443Z,7.31
2017-10-28T00:28:39.101Z,7.07
2017-10-28T00:31:12.149Z,6.96
2017-10-28T00:33:45.164Z,6.72
2017-10-28T00:36:14.390Z,6.81
2017-10-28T00:38:41.838Z,6.71
2017-10-28T00:41:09.281Z,6.73
2017-10-28T00:43:36.840Z,6.68
2017-10-28T00:46:04.278Z,6.52
2017-10-28T00:48:31.850Z,6.49
2017-10-28T00:50:59.311Z,6.53
2017-10-28T00:53:26.763Z,6.57
2017-10-28T00:55:54.235Z,6.73
2017-10-28T00:58:21.784Z,6.74
2017-10-28T01:00:49.235Z,6.73
2017-10-28T01:03:16.679Z,6.64
2017-10-28T01:05:44.160Z,6.75
2017-10-28T01:08:11.598Z,6.80
2017-10-28T01:10:39.183Z,6.62
2017-10-28T01:13:06.624Z,6.62
2017-10-28T01:15:34.088Z,7.03
2017-10-28T01:18:01.547Z,6.79
2017-10-28T01:20:29.010Z,6.80
2017-10-28T01:22:56.466Z,6.85
2017-10-28T01:25:23.947Z,7.13
2017-10-28T01:27:51.466Z,7.08
2017-10-28T01:30:18.908Z,7.02
2017-10-28T01:32:46.375Z,7.19
2017-10-28T01:35:13.810Z,7.19
2017-10-28T01:37:41.275Z,7.19
2017-10-28T01:40:08.749Z,6.95
2017-10-28T01:42:36.211Z,6.68
2017-10-28T01:45:03.648Z,6.78
2017-10-28T01:47:31.127Z,6.76
2017-10-28T01:49:58.566Z,6.60
2017-10-28T01:52:26.036Z,6.54
2017-10-28T01:54:53.471Z,6.58
2017-10-28T01:57:20.923Z,6.53
2017-10-28T01:59:48.374Z,6.44
2017-10-28T02:02:15.847Z,6.37
2017-10-28T02:04:43.314Z,6.36
2017-10-28T02:07:10.760Z,6.21
2017-10-28T02:09:38.242Z,6.23
2017-10-28T02:12:05.695Z,6.19
2017-10-28T02:14:33.160Z,6.21
2017-10-28T02:17:00.605Z,6.37
2017-10-28T02:19:28.071Z,6.80
2017-10-28T02:21:55.522Z,6.94
2017-10-28T02:24:23.002Z,7.17
2017-10-28T02:26:50.551Z,7.45
2017-10-28T02:29:18.007Z,7.58
2017-10-28T02:31:45.447Z,7.79
2017-10-28T02:34:12.919Z,8.22
2017-10-28T02:36:40.372Z,8.34
2017-10-28T02:39:07.839Z,8.28
2017-10-28T02:41:35.367Z,8.17
2017-10-28T02:44:02.822Z,8.41
2017-10-28T02:46:30.281Z,8.10
2017-10-28T02:48:57.751Z,8.12
2017-10-28T02:51:25.215Z,8.23
2017-10-28T02:53:52.651Z,8.00
2017-10-28T02:56:20.209Z,8.07
2017-10-28T02:58:47.660Z,8.42
2017-10-28T03:01:15.134Z,8.23
2017-10-28T03:03:42.581Z,8.42
2017-10-28T03:06:10.067Z,8.25
2017-10-28T03:08:37.583Z,8.54
2017-10-28T03:11:05.055Z,8.13
2017-10-28T03:13:32.583Z,8.10
2017-10-28T03:16:00.061Z,8.07
2017-10-28T03:18:27.508Z,7.96
2017-10-28T03:20:54.972Z,7.73
2017-10-28T03:23:22.406Z,7.53
2017-10-28T03:25:49.866Z,7.59
2017-10-28T03:28:17.311Z,7.97
2017-10-28T03:30:44.775Z,8.28
2017-10-28T03:33:12.236Z,8.28
2017-10-28T03:35:39.690Z,8.32
2017-10-28T03:38:07.132Z,8.44
2017-10-28T03:40:34.623Z,8.68
2017-10-28T03:43:02.074Z,8.64
2017-10-28T03:45:29.536Z,8.69
2017-10-28T03:47:57.020Z,8.74
2017-10-28T03:50:24.482Z,8.73
2017-10-28T03:52:51.938Z,8.88
2017-10-28T03:55:19.415Z,9.06
2017-10-28T03:57:46.879Z,8.89
2017-10-28T04:00:14.367Z,9.18
2017-10-28T04:02:41.823Z,9.13
2017-10-28T04:05:09.296Z,9.06
2017-10-28T04:07:36.751Z,8.98
2017-10-28T04:10:04.196Z,8.93
2017-10-28T04:12:31.660Z,8.85
2017-10-28T04:14:59.124Z,8.89
2017-10-28T04:17:26.583Z,8.98
2017-10-28T04:19:54.048Z,9.17
2017-10-28T04:22:21.632Z,8.93
2017-10-28T04:24:49.245Z,8.97
2017-10-28T04:27:16.713Z,9.03
2017-10-28T04:29:44.146Z,8.99
2017-10-28T04:32:11.607Z,9.13
2017-10-28T04:34:39.059Z,9.20
2017-10-28T04:37:06.527Z,9.20
2017-10-28T04:39:33.965Z,9.38
2017-10-28T04:42:01.450Z,9.27
2017-10-28T04:44:28.901Z,9.25
2017-10-28T04:46:56.342Z,9.24
2017-10-28T04:49:23.815Z,9.37
2017-10-28T04:51:51.378Z,9.45
2017-10-28T04:54:18.840Z,9.41
2017-10-28T04:56:46.317Z,9.56
2017-10-28T04:59:13.787Z,9.46
2017-10-28T05:01:41.229Z,9.61
2017-10-28T05:04:08.700Z,9.50
2017-10-28T05:06:36.146Z,9.51
2017-10-28T05:09:03.627Z,9.68
2017-10-28T05:11:31.082Z,9.66
2017-10-28T05:13:58.543Z,9.67
2017-10-28T05:16:25.994Z,9.75
2017-10-28T05:18:53.460Z,9.69
2017-10-28T05:21:20.899Z,9.87
2017-10-28T05:23:48.413Z,9.86
2017-10-28T05:26:15.847Z,9.99
2017-10-28T05:28:43.307Z,9.78
2017-10-28T05:31:10.746Z,9.87
2017-10-28T05:33:38.206Z,9.76
2017-10-28T05:36:05.650Z,9.88
2017-10-28T05:38:33.132Z,9.85
2017-10-28T05:41:00.575Z,10.04
2017-10-28T05:43:28.044Z,10.06
2017-10-28T05:45:55.492Z,9.91
2017-10-28T05:48:22.946Z,9.87
2017-10-28T05:50:50.436Z,10.09
2017-10-28T05:53:17.930Z,9.92
2017-10-28T05:55:45.456Z,9.92
2017-10-28T05:58:13.005Z,9.88
2017-10-28T06:00:40.468Z,9.77
2017-10-28T06:03:07.917Z,9.78
2017-10-28T06:05:35.387Z,9.85
2017-10-28T06:08:02.823Z,9.87
2017-10-28T06:10:30.283Z,9.86
2017-10-28T06:12:57.731Z,9.81
2017-10-28T06:15:25.205Z,9.81
2017-10-28T06:17:52.648Z,9.73
2017-10-28T06:20:20.124Z,9.71
2017-10-28T06:22:47.571Z,9.63
2017-10-28T06:25:15.133Z,9.53
2017-10-28T06:27:42.571Z,9.50
2017-10-28T06:30:10.043Z,9.56
2017-10-28T06:32:37.487Z,9.53
2017-10-28T06:35:05.086Z,9.51
2017-10-28T06:37:32.528Z,9.42
2017-10-28T06:39:59.991Z,9.48
2017-10-28T06:42:27.427Z,9.43
2017-10-28T06:44:54.902Z,9.44
2017-10-28T06:47:22.438Z,9.41
2017-10-28T06:49:49.900Z,9.38
2017-10-28T06:52:17.505Z,9.44
2017-10-28T06:54:44.954Z,9.50
2017-10-28T06:57:12.479Z,9.57
2017-10-28T06:59:39.924Z,9.78
2017-10-28T07:02:07.409Z,9.85
2017-10-28T07:04:34.864Z,9.84
2017-10-28T07:07:02.331Z,9.89
2017-10-28T07:09:29.778Z,10.00
2017-10-28T07:11:57.238Z,10.07
2017-10-28T07:14:24.782Z,10.04
2017-10-28T07:16:52.244Z,10.05
2017-10-28T07:19:19.891Z,9.93
2017-10-28T07:21:47.375Z,10.07
2017-10-28T07:24:14.824Z,10.04
2017-10-28T07:26:42.302Z,10.11
2017-10-28T07:29:09.738Z,10.15
2017-10-28T07:31:37.285Z,10.27
2017-10-28T07:34:04.860Z,10.68
2017-10-28T07:36:32.392Z,10.29
2017-10-28T07:38:59.838Z,10.33
2017-10-28T07:41:27.304Z,10.43
2017-10-28T07:43:54.751Z,10.44
2017-10-28T07:46:22.222Z,10.41
2017-10-28T07:48:49.679Z,10.48
2017-10-28T07:51:17.134Z,10.56
2017-10-28T07:53:44.582Z,10.49
2017-10-28T07:56:12.043Z,10.71
2017-10-28T07:58:39.491Z,10.50
2017-10-28T08:01:06.932Z,10.52
2017-10-28T08:03:34.400Z,10.62
2017-10-28T08:06:01.862Z,10.58
2017-10-28T08:08:29.335Z,10.81
2017-10-28T08:10:56.782Z,10.57
2017-10-28T08:13:24.256Z,10.54
2017-10-28T08:15:51.706Z,10.56
2017-10-28T08:18:19.171Z,10.61
2017-10-28T08:20:46.715Z,10.54
2017-10-28T08:23:14.174Z,10.56
2017-10-28T08:25:41.639Z,10.90
2017-10-28T08:28:09.113Z,10.87
2017-10-28T08:30:36.658Z,10.63
2017-10-28T08:33:04.127Z,10.68
2017-10-28T08:35:31.712Z,10.67
2017-10-28T08:37:59.228Z,10.80
2017-10-28T08:40:26.772Z,10.79
2017-10-28T08:42:54.239Z,10.87
2017-10-28T08:45:21.689Z,10.83
2017-10-28T08:47:49.164Z,10.85
2017-10-28T08:50:16.602Z,10.88
2017-10-28T08:52:44.070Z,10.91
2017-10-28T08:55:11.510Z,10.90
2017-10-28T08:57:39.006Z,11.00
2017-10-28T09:00:06.457Z,10.92
2017-10-28T09:02:33.940Z,10.96
2017-10-28T09:05:01.406Z,11.18
2017-10-28T09:07:28.847Z,11.04
2017-10-28T09:09:56.306Z,11.08
2017-10-28T09:12:23.752Z,11.05
2017-10-28T09:14:51.234Z,11.09
2017-10-28T09:17:18.683Z,11.16
2017-10-28T09:19:46.143Z,11.18
2017-10-28T09:22:13.584Z,11.29
2017-10-28T09:24:41.056Z,11.04
2017-10-28T09:27:08.498Z,11.15
2017-10-28T09:29:35.959Z,11.15
2017-10-28T09:32:03.518Z,11.39
2017-10-28T09:34:30.998Z,11.31
2017-10-28T09:36:58.470Z,11.27
2017-10-28T09:39:25.928Z,11.34
2017-10-28T09:41:53.392Z,11.32
2017-10-28T09:44:20.872Z,11.21
2017-10-28T09:46:48.363Z,11.35
2017-10-28T09:49:15.816Z,11.57
2017-10-28T09:51:43.287Z,11.46
2017-10-28T09:54:10.727Z,11.52
2017-10-28T09:56:38.204Z,11.44
2017-10-28T09:59:05.671Z,11.50
2017-10-28T10:01:33.134Z,11.59
2017-10-28T10:04:00.604Z,11.56
2017-10-28T10:06:28.063Z,11.68
2017-10-28T10:08:55.524Z,11.68
2017-10-28T10:11:22.983Z,11.59
2017-10-28T10:13:50.440Z,11.66
2017-10-28T10:16:17.941Z,11.65
2017-10-28T10:18:45.393Z,11.81
2017-10-28T10:21:12.833Z,11.94
2017-10-28T10:23:40.367Z,11.83
2017-10-28T10:26:07.819Z,11.91
2017-10-28T10:28:35.282Z,11.93
2017-10-28T10:31:02.819Z,11.92
2017-10-28T10:33:30.307Z,12.03
2017-10-28T10:35:57.755Z,12.04
2017-10-28T10:38:25.223Z,12.14
2017-10-28T10:40:52.663Z,12.04
2017-10-28T10:43:20.216Z,12.22
2017-10-28T10:45:47.674Z,12.33
2017-10-28T10:48:15.135Z,12.34
2017-10-28T10:50:42.584Z,12.25
2017-10-28T10:53:10.043Z,12.25
2017-10-28T10:55:37.492Z,12.00
2017-10-28T10:58:04.979Z,11.98
2017-10-28T11:00:32.428Z,12.20
2017-10-28T11:02:59.967Z,12.11
2017-10-28T11:05:27.538Z,11.88
2017-10-28T11:07:54.978Z,11.92
2017-10-28T11:10:22.539Z,12.03
2017-10-28T11:12:49.987Z,12.00
2017-10-28T11:15:17.446Z,11.97
2017-10-28T11:17:44.886Z,12.04
2017-10-28T11:20:12.358Z,12.04
2017-10-28T11:22:39.804Z,11.98
2017-10-28T11:25:07.315Z,12.06
2017-10-28T11:27:34.754Z,12.12
2017-10-28T11:30:02.215Z,12.22
2017-10-28T11:32:29.662Z,12.38
2017-10-28T11:34:57.126Z,12.12
2017-10-28T11:37:24.570Z,12.14
2017-10-28T11:39:52.031Z,12.21
2017-10-28T11:42:19.579Z,12.11
2017-10-28T11:44:47.050Z,12.17
2017-10-28T11:47:14.507Z,12.24
2017-10-28T11:49:41.950Z,12.14
2017-10-28T11:52:09.416Z,12.12
2017-10-28T11:54:36.879Z,12.23
2017-10-28T11:57:04.357Z,12.61
2017-10-28T11:59:31.801Z,12.41
2017-10-28T12:01:59.280Z,12.39
2017-10-28T12:04:26.727Z,12.40
2017-10-28T12:06:54.222Z,12.35
2017-10-28T12:09:21.668Z,12.30
2017-10-28T12:11:49.158Z,12.35
2017-10-28T12:14:16.717Z,12.48
2017-10-28T12:16:44.179Z,12.54
2017-10-28T12:19:11.664Z,12.36
2017-10-28T12:21:39.188Z,12.23
2017-10-28T12:24:06.658Z,12.17
2017-10-28T12:26:34.116Z,12.09
2017-10-28T12:29:01.599Z,12.14
2017-10-28T12:31:29.047Z,12.18
2017-10-28T12:33:56.517Z,12.11
2017-10-28T12:36:24.051Z,12.08
2017-10-28T12:38:51.514Z,12.37
2017-10-28T12:41:18.965Z,12.07
2017-10-28T12:43:46.459Z,12.06
2017-10-28T12:46:13.920Z,12.17
2017-10-28T12:48:41.371Z,12.09
2017-10-28T12:51:08.831Z,11.96
2017-10-28T12:53:36.334Z,12.16
2017-10-28T12:56:03.795Z,12.22
2017-10-28T12:58:31.240Z,12.13
2017-10-28T13:00:58.707Z,12.13
2017-10-28T13:03:26.159Z,12.36
2017-10-28T13:05:53.640Z,12.26
2017-10-28T13:08:21.103Z,12.09
2017-10-28T13:10:48.565Z,12.16
2017-10-28T13:13:16.037Z,12.20
2017-10-28T13:15:43.484Z,12.13
2017-10-28T13:18:10.963Z,12.10
2017-10-28T13:20:38.464Z,12.23
2017-10-28T13:23:05.956Z,12.35
2017-10-28T13:25:33.402Z,12.22
2017-10-28T13:28:00.923Z,12.18
2017-10-28T13:30:28.482Z,12.20
2017-10-28T13:32:55.968Z,12.15
2017-10-28T13:35:23.423Z,12.16
2017-10-28T13:37:50.878Z,12.13
2017-10-28T13:40:18.347Z,12.06
2017-10-28T13:42:45.870Z,12.12
2017-10-28T13:45:13.335Z,12.21
2017-10-28T13:47:40.779Z,12.16
2017-10-28T13:50:08.242Z,12.06
2017-10-28T13:52:35.688Z,12.22
2017-10-28T13:55:03.154Z,12.23
2017-10-28T13:57:30.624Z,12.38
2017-10-28T13:59:58.154Z,12.38
2017-10-28T14:02:25.623Z,12.56
2017-10-28T14:04:53.091Z,12.35
2017-10-28T14:07:20.545Z,12.31
2017-10-28T14:09:48.039Z,12.20
2017-10-28T14:12:15.544Z,12.26
2017-10-28T14:14:43.828Z,12.20
2017-10-28T14:17:11.305Z,12.30
2017-10-28T14:19:38.843Z,12.33
2017-10-28T14:22:06.456Z,12.33
2017-10-28T14:24:33.922Z,12.29
2017-10-28T14:27:01.433Z,12.39
2017-10-28T14:29:28.974Z,12.41
2017-10-28T14:31:56.440Z,12.34
2017-10-28T14:34:23.888Z,12.31
2017-10-28T14:36:51.446Z,12.38
2017-10-28T14:39:18.899Z,12.33
2017-10-28T14:41:46.370Z,12.37
2017-10-28T14:44:13.835Z,12.23
2017-10-28T14:46:41.300Z,12.27
2017-10-28T14:49:08.851Z,12.15
2017-10-28T14:51:36.292Z,12.24
2017-10-28T14:54:03.755Z,12.02
2017-10-28T14:56:31.196Z,12.00
2017-10-28T14:58:58.670Z,12.05
2017-10-28T15:01:26.135Z,12.11
2017-10-28T15:03:53.608Z,11.99
2017-10-28T15:06:21.063Z,12.00
2017-10-28T15:08:48.575Z,12.09
2017-10-28T15:11:16.026Z,11.99
2017-10-28T15:13:43.474Z,12.18
2017-10-28T15:16:10.984Z,11.98
2017-10-28T15:18:38.450Z,12.01
2017-10-28T15:21:05.970Z,12.12
2017-10-28T15:23:33.526Z,12.14
2017-10-28T15:26:00.990Z,12.16
2017-10-28T15:28:28.450Z,12.11
2017-10-28T15:30:55.931Z,12.02
2017-10-28T15:33:23.887Z,12.12
2017-10-28T15:35:51.367Z,12.02
2017-10-28T15:38:18.842Z,12.02
2017-10-28T15:40:46.332Z,11.96
2017-10-28T15:43:13.806Z,11.97
2017-10-28T15:45:41.263Z,12.03
2017-10-28T15:48:08.722Z,12.02
2017-10-28T15:50:36.168Z,12.01
2017-10-28T15:53:03.634Z,12.12
2017-10-28T15:55:31.177Z,12.07
2017-10-28T15:57:58.664Z,11.99
2017-10-28T16:00:26.166Z,12.25
2017-10-28T16:02:53.651Z,12.03
2017-10-28T16:05:21.103Z,12.03
2017-10-28T16:07:48.590Z,12.05
2017-10-28T16:10:16.058Z,12.06
2017-10-28T16:12:43.502Z,12.07
2017-10-28T16:15:11.368Z,12.12
2017-10-28T16:17:38.812Z,12.14
2017-10-28T16:20:06.599Z,12.21
2017-10-28T16:22:34.071Z,12.15
2017-10-28T16:25:01.563Z,12.13
2017-10-28T16:27:29.015Z,12.24
2017-10-28T16:29:56.486Z,12.25
2017-10-28T16:32:23.941Z,12.25
2017-10-28T16:34:51.550Z,12.34
2017-10-28T16:37:19.005Z,12.20
2017-10-28T16:39:46.711Z,12.14
2017-10-28T16:42:14.365Z,12.19
2017-10-28T16:44:41.899Z,12.27
2017-10-28T16:47:09.424Z,12.16
2017-10-28T16:49:36.873Z,12.20
2017-10-28T16:52:04.375Z,12.30
2017-10-28T16:54:31.866Z,12.20
2017-10-28T16:56:59.356Z,12.23
2017-10-28T16:59:26.889Z,12.21
2017-10-28T17:01:54.345Z,12.49
2017-10-28T17:04:21.922Z,12.32
2017-10-28T17:06:49.418Z,12.30
2017-10-28T17:09:16.873Z,12.46
2017-10-28T17:11:44.525Z,12.34
2017-10-28T17:14:11.970Z,12.47
2017-10-28T17:16:39.454Z,12.60
2017-10-28T17:19:06.898Z,12.37
2017-10-28T17:21:34.358Z,12.31
2017-10-28T17:24:01.823Z,12.38
2017-10-28T17:26:29.264Z,12.59
2017-10-28T17:28:56.727Z,12.47
2017-10-28T17:31:24.182Z,12.70
2017-10-28T17:33:51.651Z,12.47
2017-10-28T17:36:19.105Z,12.45
2017-10-28T17:38:46.566Z,12.41
2017-10-28T17:41:14.112Z,12.57
2017-10-28T17:43:41.580Z,12.40
2017-10-28T17:46:09.074Z,12.48
2017-10-28T17:48:36.531Z,12.42
2017-10-28T17:51:04.100Z,12.62
2017-10-28T17:53:31.593Z,12.38
2017-10-28T17:55:59.043Z,12.38
2017-10-28T17:58:26.561Z,12.43
2017-10-28T18:00:54.026Z,12.41
2017-10-28T18:03:21.577Z,12.38
2017-10-28T18:05:49.050Z,12.45
2017-10-28T18:08:16.502Z,12.45
2017-10-28T18:10:43.998Z,12.55
2017-10-28T18:13:11.538Z,12.63
2017-10-28T18:15:39.013Z,12.46
2017-10-28T18:18:06.459Z,12.51
2017-10-28T18:20:33.947Z,12.50
2017-10-28T18:23:01.401Z,12.49
2017-10-28T18:25:28.871Z,12.53
2017-10-28T18:27:56.347Z,12.51
2017-10-28T18:30:23.807Z,12.57
2017-10-28T18:32:51.375Z,12.45
2017-10-28T18:35:18.843Z,12.46
2017-10-28T18:37:46.288Z,12.66
2017-10-28T18:40:13.777Z,12.49
2017-10-28T18:42:41.290Z,12.64
2017-10-28T18:45:08.754Z,12.56
2017-10-28T18:47:36.228Z,12.70
2017-10-28T18:50:03.670Z,12.67
2017-10-28T18:52:31.170Z,12.62
2017-10-28T18:54:58.673Z,12.57
2017-10-28T18:57:26.159Z,12.52
2017-10-28T18:59:53.620Z,12.59
2017-10-28T19:02:21.119Z,12.73
2017-10-28T19:04:48.568Z,12.58
2017-10-28T19:07:16.036Z,12.71
2017-10-28T19:09:43.493Z,12.65
2017-10-28T19:12:10.953Z,12.66
2017-10-28T19:14:38.399Z,12.80
2017-10-28T19:17:05.884Z,12.69
2017-10-28T19:19:33.323Z,12.83
2017-10-28T19:22:00.810Z,12.81
2017-10-28T19:24:28.279Z,12.64
2017-10-28T19:26:55.723Z,12.59
2017-10-28T19:29:23.188Z,12.60
2017-10-28T19:31:50.719Z,12.54
2017-10-28T19:34:18.184Z,12.59
2017-10-28T19:36:45.624Z,12.74
2017-10-28T19:39:13.090Z,12.58
2017-10-28T19:41:40.562Z,12.56
2017-10-28T19:44:08.035Z,12.65
2017-10-28T19:46:35.475Z,12.57
2017-10-28T19:49:02.947Z,12.67
2017-10-28T19:51:30.451Z,12.74
2017-10-28T19:53:57.927Z,12.54
2017-10-28T19:56:25.375Z,12.62
2017-10-28T19:58:52.831Z,12.52
2017-10-28T20:01:20.424Z,12.54
2017-10-28T20:03:47.927Z,12.54
2017-10-28T20:06:15.423Z,12.60
2017-10-28T20:08:42.875Z,12.59
2017-10-28T20:11:10.346Z,12.57
2017-10-28T20:13:37.791Z,12.56
2017-10-28T20:16:05.333Z,12.53
2017-10-28T20:18:32.784Z,12.58
2017-10-28T20:21:00.247Z,12.65
2017-10-28T20:23:27.720Z,12.52
2017-10-28T20:25:55.203Z,12.61
2017-10-28T20:28:22.729Z,12.54
2017-10-28T20:30:50.182Z,12.64
2017-10-28T20:33:17.743Z,12.72
2017-10-28T20:35:45.191Z,12.71
2017-10-28T20:38:12.671Z,12.73
2017-10-28T20:40:40.109Z,12.83
2017-10-28T20:43:07.668Z,12.72
2017-10-28T20:45:35.201Z,12.60
2017-10-28T20:48:02.828Z,12.57
2017-10-28T20:50:30.275Z,12.62
2017-10-28T20:52:57.802Z,12.53
2017-10-28T20:55:25.268Z,12.54
2017-10-28T20:57:52.720Z,12.55
2017-10-28T21:00:20.192Z,12.65
2017-10-28T21:02:47.652Z,12.62
2017-10-28T21:05:15.191Z,12.75
2017-10-28T21:07:42.640Z,12.79
2017-10-28T21:10:10.105Z,12.60
2017-10-28T21:12:37.550Z,12.69
2017-10-28T21:15:05.028Z,12.62
2017-10-28T21:17:32.491Z,12.60
2017-10-28T21:19:59.940Z,12.58
2017-10-28T21:22:27.494Z,12.67
2017-10-28T21:24:54.964Z,12.55
2017-10-28T21:27:22.448Z,12.59
2017-10-28T21:29:49.964Z,12.79
2017-10-28T21:32:17.450Z,12.69
2017-10-28T21:34:44.898Z,12.65
2017-10-28T21:37:12.367Z,12.65
2017-10-28T21:39:39.810Z,12.71
2017-10-28T21:42:07.290Z,12.65
2017-10-28T21:44:34.799Z,12.66
2017-10-28T21:47:02.238Z,12.88
2017-10-28T21:49:29.735Z,12.80
2017-10-28T21:51:57.278Z,12.74
2017-10-28T21:54:24.832Z,12.81
2017-10-28T21:56:52.297Z,12.81
2017-10-28T21:59:19.847Z,12.78
2017-10-28T22:01:47.289Z,12.71
2017-10-28T22:04:14.746Z,12.80
2017-10-28T22:06:42.203Z,12.78
2017-10-28T22:09:09.662Z,12.84
2017-10-28T22:11:37.102Z,12.78
2017-10-28T22:14:04.560Z,12.82
2017-10-28T22:16:32.030Z,12.75
2017-10-28T22:18:59.512Z,12.69
2017-10-28T22:21:26.999Z,12.80
2017-10-28T22:23:54.442Z,12.77
2017-10-28T22:26:21.957Z,12.71
2017-10-28T22:28:49.432Z,12.72
2017-10-28T22:31:16.914Z,12.83
2017-10-28T22:33:44.447Z,12.79
2017-10-28T22:36:11.913Z,12.80
2017-10-28T22:38:39.360Z,12.80
2017-10-28T22:41:06.910Z,12.80
2017-10-28T22:43:34.366Z,12.77
2017-10-28T22:46:01.856Z,12.64
2017-10-28T22:48:29.383Z,12.63
2017-10-28T22:50:56.827Z,12.64
2017-10-28T22:53:24.316Z,12.61
2017-10-28T22:55:51.756Z,12.60
2017-10-28T22:58:19.316Z,12.59
2017-10-28T23:00:46.761Z,12.75
2017-10-28T23:03:14.234Z,12.72
2017-10-28T23:05:41.684Z,12.73
2017-10-28T23:08:09.146Z,12.78
2017-10-28T23:10:36.587Z,12.67
2017-10-28T23:13:04.067Z,12.69
2017-10-28T23:15:31.506Z,12.68
2017-10-28T23:17:58.977Z,12.72
2017-10-28T23:20:26.534Z,12.78
2017-10-28T23:22:54.083Z,12.82
2017-10-28T23:25:21.545Z,12.70
2017-10-28T23:27:49.098Z,12.74
2017-10-28T23:30:16.550Z,12.64
2017-10-28T23:32:44.001Z,12.65
2017-10-28T23:35:11.472Z,12.78
2017-10-28T23:37:39.018Z,12.68
2017-10-28T23:40:06.479Z,12.66
2017-10-28T23:42:33.918Z,12.61
2017-10-28T23:45:01.375Z,12.75
2017-10-28T23:47:28.814Z,12.89
2017-10-28T23:49:56.283Z,12.68
2017-10-28T23:52:23.770Z,12.64
2017-10-28T23:54:51.344Z,12.68
2017-10-28T23:57:18.784Z,12.68
2017-10-28T23:59:46.334Z,12.73
